Time;durP1;ratioP1;P1;durP2;ratioP2;P2;SDS_P1;SDS_P2;PMS_P1;PMS_P2;Temp;Humidity;BMP_temperature;BMP_pressure;BME280_temperature;BME280_humidity;BME280_pressure;Samples;Min_cycle;Max_cycle;Signal;HPM_P1;HPM_P2
2020/12/17 00:00:56;;;;;;;22.42;12.85;;;;;;;5.99;100.00;101375.50;6272456;28;20049;-75
2020/12/17 00:03:57;;;;;;;22.60;13.68;;;;;;;6.12;100.00;101378.69;6272875;28;20056;-76
2020/12/17 00:06:58;;;;;;;24.50;13.13;;;;;;;6.02;100.00;101368.47;6272047;28;20095;-76
2020/12/17 00:09:59;;;;;;;21.15;12.30;;;;;;;6.06;100.00;101370.13;6272229;28;20399;-75
2020/12/17 00:13:00;;;;;;;21.58;11.90;;;;;;;5.92;100.00;101363.53;6272456;28;20099;-75
2020/12/17 00:16:01;;;;;;;25.45;12.23;;;;;;;5.91;100.00;101372.22;6272193;28;20045;-75
2020/12/17 00:19:03;;;;;;;21.90;13.27;;;;;;;5.92;100.00;101372.22;6271838;28;20049;-75
2020/12/17 00:22:04;;;;;;;25.70;13.93;;;;;;;5.87;100.00;101367.97;6272093;28;20056;-74
2020/12/17 00:25:05;;;;;;;25.35;13.93;;;;;;;5.83;100.00;101370.66;6272270;28;20041;-75
2020/12/17 00:28:06;;;;;;;25.77;14.13;;;;;;;5.88;100.00;101369.69;6272076;28;20049;-75
2020/12/17 00:31:07;;;;;;;27.13;14.75;;;;;;;5.97;100.00;101374.72;6271863;28;20098;-75
2020/12/17 00:34:09;;;;;;;28.33;14.65;;;;;;;5.97;100.00;101375.56;6272048;28;20052;-75
2020/12/17 00:37:10;;;;;;;25.98;15.00;;;;;;;6.00;100.00;101377.25;6271897;28;20103;-75
2020/12/17 00:40:13;;;;;;;24.05;13.70;;;;;;;6.05;100.00;101371.03;6271532;28;20461;-75
2020/12/17 00:43:14;;;;;;;24.60;14.25;;;;;;;6.03;100.00;101380.63;6272036;28;20049;-76
2020/12/17 00:46:16;;;;;;;25.90;15.15;;;;;;;6.20;100.00;101374.16;6271596;28;20067;-75
2020/12/17 00:49:17;;;;;;;25.08;14.55;;;;;;;6.20;100.00;101367.16;6271182;28;20057;-75
2020/12/17 00:52:22;;;;;;;26.05;14.48;;;;;;;6.25;100.00;101364.44;6271529;28;20056;-75
2020/12/17 00:55:22;;;;;;;28.10;15.57;;;;;;;6.24;100.00;101363.59;6271276;28;20052;-75
2020/12/17 00:58:23;;;;;;;28.52;16.17;;;;;;;6.29;100.00;101355.63;6271733;28;20391;-75
2020/12/17 01:01:24;;;;;;;32.22;16.08;;;;;;;6.27;100.00;101360.91;6271030;28;20049;-75
2020/12/17 01:04:25;;;;;;;28.90;15.65;;;;;;;6.33;100.00;101354.66;6271317;28;20457;-75
2020/12/17 01:07:26;;;;;;;26.98;15.45;;;;;;;6.44;100.00;101354.38;6271048;28;20107;-73
2020/12/17 01:10:28;;;;;;;27.35;15.55;;;;;;;6.50;100.00;101356.84;6271405;28;20048;-76
2020/12/17 01:13:29;;;;;;;26.85;15.32;;;;;;;6.61;100.00;101352.19;6271281;28;20508;-76
2020/12/17 01:16:31;;;;;;;26.30;14.93;;;;;;;6.74;100.00;101345.72;6271002;28;20040;-76
2020/12/17 01:19:33;;;;;;;27.60;14.57;;;;;;;6.78;100.00;101351.72;6270193;28;20045;-75
2020/12/17 01:22:34;;;;;;;27.25;15.18;;;;;;;6.67;100.00;101353.75;6270766;28;20494;-74
2020/12/17 01:25:34;;;;;;;26.15;14.43;;;;;;;6.68;100.00;101360.72;6271119;28;20048;-76
2020/12/17 01:28:36;;;;;;;28.08;15.93;;;;;;;6.69;100.00;101357.19;6270472;28;20056;-76
2020/12/17 01:31:36;;;;;;;27.95;14.98;;;;;;;6.68;100.00;101348.50;6270979;28;20060;-76
2020/12/17 01:34:38;;;;;;;25.33;14.63;;;;;;;6.74;100.00;101350.09;6271029;28;20048;-73
2020/12/17 01:37:39;;;;;;;26.38;15.32;;;;;;;6.70;100.00;101351.91;6271069;28;20091;-75
2020/12/17 01:40:40;;;;;;;28.13;14.90;;;;;;;6.64;100.00;101370.38;6270699;28;20052;-73
2020/12/17 01:43:43;;;;;;;29.42;15.98;;;;;;;6.61;100.00;101360.00;6271013;28;20044;-73
2020/12/17 01:46:44;;;;;;;31.40;15.60;;;;;;;6.63;100.00;101360.81;6270638;28;20045;-74
2020/12/17 01:49:46;;;;;;;28.60;15.85;;;;;;;6.78;100.00;101356.94;6270304;28;20073;-76
2020/12/17 01:52:47;;;;;;;31.33;15.90;;;;;;;6.68;100.00;101363.31;6270486;28;20464;-75
2020/12/17 01:55:48;;;;;;;27.88;15.55;;;;;;;6.66;100.00;101354.66;6327431;22;20056;-70
2020/12/17 01:58:53;;;;;;;30.52;15.80;;;;;;;6.63;100.00;101354.72;6311750;28;20093;-70
2020/12/17 02:01:55;;;;;;;29.80;16.00;;;;;;;6.61;100.00;101358.25;6320501;28;20055;-69
2020/12/17 02:04:57;;;;;;;27.80;15.52;;;;;;;6.67;100.00;101361.59;6320620;28;20048;-69
2020/12/17 02:08:00;;;;;;;28.25;15.32;;;;;;;6.71;100.00;101353.63;6320308;28;20097;-70
2020/12/17 02:11:01;;;;;;;31.20;16.63;;;;;;;6.61;100.00;101360.88;6320114;28;20048;-70
2020/12/17 02:14:03;;;;;;;32.78;17.00;;;;;;;6.65;100.00;101371.22;6320438;28;20086;-69
2020/12/17 02:17:04;;;;;;;31.40;16.58;;;;;;;6.71;100.00;101358.84;6309084;28;20055;-70
2020/12/17 02:20:07;;;;;;;29.88;17.08;;;;;;;6.78;100.00;101342.13;6295201;28;20048;-70
2020/12/17 02:23:08;;;;;;;29.48;16.17;;;;;;;6.64;100.00;101349.50;6295580;28;20049;-70
2020/12/17 02:26:09;;;;;;;32.70;17.88;;;;;;;6.55;100.00;101336.69;6294802;28;20097;-70
2020/12/17 02:29:10;;;;;;;33.90;18.35;;;;;;;6.59;100.00;101346.16;6296091;28;20053;-70
2020/12/17 02:32:11;;;;;;;32.65;15.77;;;;;;;6.68;100.00;101342.44;6299855;28;20088;-70
2020/12/17 02:35:12;;;;;;;36.65;18.63;;;;;;;6.60;100.00;101351.31;6299722;28;20455;-70
2020/12/17 02:38:12;;;;;;;32.85;17.52;;;;;;;6.62;100.00;101340.81;6299518;28;20048;-70
2020/12/17 02:41:14;;;;;;;36.80;18.77;;;;;;;6.64;100.00;101343.41;6299473;28;20495;-69
2020/12/17 02:44:15;;;;;;;31.67;17.25;;;;;;;6.57;100.00;101340.09;6299202;28;20573;-69
2020/12/17 02:47:16;;;;;;;35.75;17.65;;;;;;;6.63;100.00;101346.91;6299313;28;20049;-70
2020/12/17 02:50:17;;;;;;;32.15;16.67;;;;;;;6.61;100.00;101328.66;6299047;28;20080;-69
2020/12/17 02:53:18;;;;;;;32.47;17.80;;;;;;;6.54;100.00;101327.09;6299465;28;20048;-69
2020/12/17 02:56:21;;;;;;;37.28;19.25;;;;;;;6.58;100.00;101331.34;6298738;28;20041;-69
2020/12/17 02:59:22;;;;;;;37.60;19.08;;;;;;;6.55;100.00;101337.53;6299107;28;20084;-70
2020/12/17 03:02:23;;;;;;;32.53;17.83;;;;;;;6.55;100.00;101336.69;6299112;28;20044;-70
2020/12/17 03:05:24;;;;;;;35.05;18.58;;;;;;;6.59;100.00;101338.31;6299114;28;20045;-70
2020/12/17 03:08:26;;;;;;;30.85;16.35;;;;;;;6.55;100.00;101329.69;6298831;28;20102;-70
2020/12/17 03:11:27;;;;;;;36.50;18.17;;;;;;;6.50;100.00;101330.72;6299924;28;20097;-70
2020/12/17 03:14:28;;;;;;;35.90;18.60;;;;;;;6.57;100.00;101332.25;6298826;28;20049;-70
2020/12/17 03:17:29;;;;;;;36.58;18.05;;;;;;;6.55;100.00;101329.69;6298591;28;20147;-70
2020/12/17 03:20:30;;;;;;;34.00;18.13;;;;;;;6.56;100.00;101334.03;6297947;28;20076;-70
2020/12/17 03:23:31;;;;;;;35.60;18.65;;;;;;;6.53;100.00;101331.47;6298696;28;20437;-70
2020/12/17 03:26:32;;;;;;;34.90;18.83;;;;;;;6.54;100.00;101333.22;6298343;28;20073;-70
2020/12/17 03:29:33;;;;;;;39.45;18.10;;;;;;;6.64;100.00;101319.91;6298205;28;20060;-70
2020/12/17 03:32:34;;;;;;;39.38;20.52;;;;;;;6.63;100.00;101326.84;6298581;28;20410;-69
2020/12/17 03:35:35;;;;;;;37.88;19.98;;;;;;;6.66;100.00;101318.94;6298229;28;20124;-70
2020/12/17 03:38:36;;;;;;;41.80;19.17;;;;;;;6.67;100.00;101314.56;6297831;28;20060;-70
2020/12/17 03:41:37;;;;;;;36.90;19.23;;;;;;;6.70;100.00;101319.72;6297740;28;20079;-69
2020/12/17 03:44:38;;;;;;;41.90;19.23;;;;;;;6.67;100.00;101320.66;6297843;28;20048;-70
2020/12/17 03:47:39;;;;;;;42.13;19.08;;;;;;;6.66;100.00;101315.47;6297904;28;20106;-69
2020/12/17 03:50:40;;;;;;;38.47;20.25;;;;;;;6.65;100.00;101313.78;6297677;28;20055;-70
2020/12/17 03:53:41;;;;;;;41.28;20.20;;;;;;;6.69;100.00;101304.97;6297837;28;20125;-70
2020/12/17 03:56:42;;;;;;;39.33;18.95;;;;;;;6.71;100.00;101308.38;6297583;28;20079;-69
2020/12/17 03:59:43;;;;;;;37.08;19.23;;;;;;;6.71;100.00;101290.94;6297346;28;20455;-70
2020/12/17 04:02:44;;;;;;;34.45;19.00;;;;;;;6.70;100.00;101288.38;6297733;28;20055;-70
2020/12/17 04:05:45;;;;;;;41.65;20.40;;;;;;;6.70;100.00;101289.25;6297730;28;20072;-70
2020/12/17 04:08:46;;;;;;;35.50;18.63;;;;;;;6.81;100.00;101288.91;6296950;28;20122;-69
2020/12/17 04:11:47;;;;;;;34.25;17.77;;;;;;;6.84;100.00;101281.84;6297591;28;20052;-70
2020/12/17 04:14:48;;;;;;;37.95;19.17;;;;;;;6.77;100.00;101274.25;6297455;28;20040;-69
2020/12/17 04:17:49;;;;;;;38.05;19.92;;;;;;;6.75;100.00;101269.06;6296979;28;20496;-70
2020/12/17 04:20:50;;;;;;;33.90;18.00;;;;;;;6.77;100.00;101263.81;6297013;28;20051;-69
2020/12/17 04:23:51;;;;;;;33.95;18.70;;;;;;;6.81;100.00;101268.03;6297256;28;20662;-70
2020/12/17 04:26:53;;;;;;;37.08;19.80;;;;;;;6.75;100.00;101274.28;6296980;28;20534;-69
2020/12/17 04:29:54;;;;;;;39.95;20.55;;;;;;;6.88;100.00;101280.00;6296359;28;20053;-70
2020/12/17 04:32:55;;;;;;;41.13;19.35;;;;;;;6.82;100.00;101277.59;6297298;28;20102;-70
2020/12/17 04:35:55;;;;;;;34.53;18.50;;;;;;;6.91;100.00;101281.69;6296580;28;20041;-70
2020/12/17 04:38:56;;;;;;;34.03;19.30;;;;;;;6.86;100.00;101285.28;6296472;28;20044;-70
2020/12/17 04:41:59;;;;;;;35.17;19.33;;;;;;;6.86;100.00;101287.91;6297040;28;20457;-70
2020/12/17 04:45:01;;;;;;;37.85;19.35;;;;;;;6.86;100.00;101292.28;6296397;28;20051;-70
2020/12/17 04:48:05;;;;;;;38.33;19.25;;;;;;;7.00;100.00;101290.13;6296638;28;20048;-70
2020/12/17 04:51:07;;;;;;;33.03;16.92;;;;;;;6.99;100.00;101287.53;6296125;28;20048;-70
2020/12/17 04:54:09;;;;;;;34.75;17.17;;;;;;;6.98;100.00;101288.44;6295747;28;20064;-70
2020/12/17 04:57:12;;;;;;;38.45;19.08;;;;;;;7.01;100.00;101291.81;6296259;28;20048;-70
2020/12/17 05:00:14;;;;;;;33.38;17.67;;;;;;;7.03;100.00;101292.63;6296233;28;20051;-69
2020/12/17 05:03:15;;;;;;;35.83;18.40;;;;;;;6.97;100.00;101289.34;6296334;28;20463;-69
2020/12/17 05:06:19;;;;;;;34.38;18.17;;;;;;;6.97;100.00;101287.59;6296130;28;20045;-70
2020/12/17 05:09:20;;;;;;;35.40;18.38;;;;;;;6.99;100.00;101290.13;6295982;28;20052;-70
2020/12/17 05:12:21;;;;;;;34.15;18.52;;;;;;;6.92;100.00;101286.88;6296572;28;20072;-70
2020/12/17 05:15:22;;;;;;;38.05;18.58;;;;;;;6.93;100.00;101285.09;6296214;28;20045;-70
2020/12/17 05:18:23;;;;;;;37.38;19.00;;;;;;;6.98;100.00;101278.84;6295899;28;20101;-70
2020/12/17 05:21:24;;;;;;;33.13;17.02;;;;;;;6.93;100.00;101279.88;6295724;28;20390;-70
2020/12/17 05:24:26;;;;;;;38.85;19.20;;;;;;;6.88;100.00;101276.56;6295935;28;20075;-70
2020/12/17 05:27:28;;;;;;;32.45;18.58;;;;;;;6.85;100.00;101270.50;6295561;28;20493;-69
2020/12/17 05:30:33;;;;;;;38.60;19.92;;;;;;;6.86;100.00;101272.22;6295669;28;20059;-70
2020/12/17 05:33:34;;;;;;;41.40;18.05;;;;;;;6.90;100.00;101266.91;6295921;28;20048;-70
2020/12/17 05:36:35;;;;;;;35.70;18.45;;;;;;;7.04;100.00;101255.16;6295808;28;20056;-70
2020/12/17 05:39:43;;;;;;;32.70;17.60;;;;;;;7.08;100.00;101248.91;6295825;28;20056;-69
2020/12/17 05:42:44;;;;;;;34.38;17.65;;;;;;;7.06;100.00;101255.09;6295722;28;20118;-70
2020/12/17 05:45:45;;;;;;;42.30;18.27;;;;;;;7.07;99.86;101249.81;6295825;28;20070;-70
2020/12/17 05:48:46;;;;;;;34.30;18.02;;;;;;;7.09;100.00;101250.63;6295346;28;20513;-70
2020/12/17 05:51:48;;;;;;;33.00;17.25;;;;;;;7.03;99.83;101252.56;6295647;28;20534;-70
2020/12/17 05:55:00;;;;;;;39.90;19.60;;;;;;;7.04;100.00;101255.16;6295670;28;20048;-70
2020/12/17 05:58:02;;;;;;;32.85;17.75;;;;;;;7.18;99.14;101249.50;6295271;28;20091;-69
2020/12/17 06:01:10;;;;;;;31.42;17.38;;;;;;;7.18;99.04;101256.50;6295502;28;20048;-70
2020/12/17 06:04:14;;;;;;;34.13;17.60;;;;;;;7.15;98.68;101260.03;6296693;28;20420;-70
2020/12/17 06:07:18;;;;;;;36.28;18.00;;;;;;;7.12;99.25;101268.81;6300491;28;20056;-69
2020/12/17 06:10:21;;;;;;;36.92;17.65;;;;;;;7.10;98.92;101275.84;6299871;28;20044;-70
2020/12/17 06:13:23;;;;;;;33.63;17.25;;;;;;;7.30;99.05;101269.16;6300536;28;20508;-71
2020/12/17 06:16:26;;;;;;;33.22;17.67;;;;;;;7.21;97.77;101265.06;6299829;28;20098;-70
2020/12/17 06:19:28;;;;;;;36.50;18.75;;;;;;;7.24;99.02;101269.34;6299913;28;20049;-70
2020/12/17 06:22:29;;;;;;;31.27;16.17;;;;;;;7.30;98.59;101272.63;6300041;28;20062;-70
2020/12/17 06:25:32;;;;;;;32.78;18.17;;;;;;;7.33;97.33;101276.91;6300075;28;20048;-70
2020/12/17 06:28:45;;;;;;;30.00;17.10;;;;;;;7.42;97.71;101278.38;6299707;28;20052;-70
2020/12/17 06:31:57;;;;;;;30.98;17.23;;;;;;;7.32;97.07;101277.81;6305457;28;20055;-72
2020/12/17 06:35:02;;;;;;;32.80;17.63;;;;;;;7.26;98.21;101278.00;6310696;28;20044;-70
2020/12/17 06:38:07;;;;;;;37.63;17.90;;;;;;;7.34;97.83;101278.63;6310242;28;20136;-70
2020/12/17 06:41:15;;;;;;;37.13;18.70;;;;;;;7.47;97.19;101276.47;6307356;28;20074;-71
2020/12/17 06:44:30;;;;;;;29.35;15.95;;;;;;;7.49;96.46;101283.34;6317177;28;20127;-70
2020/12/17 06:47:31;;;;;;;29.48;15.77;;;;;;;7.62;95.57;101274.19;6321245;28;20040;-70
2020/12/17 06:50:38;;;;;;;30.23;16.20;;;;;;;7.43;95.96;101277.47;6315358;28;20044;-70
2020/12/17 06:53:40;;;;;;;33.53;17.27;;;;;;;7.54;95.48;101293.66;6313069;28;20063;-70
2020/12/17 06:57:02;;;;;;;32.38;16.83;;;;;;;7.53;95.36;101299.81;6318355;28;20458;-70
2020/12/17 07:00:08;;;;;;;26.02;14.43;;;;;;;7.55;95.47;101288.41;6323261;28;20051;-70
2020/12/17 07:03:09;;;;;;;29.58;14.98;;;;;;;7.56;95.24;101295.34;6312038;28;20055;-70
2020/12/17 07:06:18;;;;;;;29.75;15.75;;;;;;;7.60;95.21;101299.56;6310251;28;20492;-70
2020/12/17 07:09:29;;;;;;;32.87;15.97;;;;;;;7.62;94.94;101308.22;6314882;28;20060;-70
2020/12/17 07:12:41;;;;;;;38.88;16.08;;;;;;;7.44;95.25;101308.78;6323859;28;20097;-70
2020/12/17 07:15:46;;;;;;;28.15;15.77;;;;;;;7.47;95.73;101319.16;6322720;28;20119;-70
2020/12/17 07:18:47;;;;;;;28.98;16.17;;;;;;;7.38;96.32;101325.53;6314818;28;20577;-70
2020/12/17 07:21:52;;;;;;;31.98;16.00;;;;;;;7.48;96.62;101318.25;6324012;28;20131;-70
2020/12/17 07:24:54;;;;;;;28.73;15.70;;;;;;;7.58;95.32;101337.97;6323577;28;20044;-70
2020/12/17 07:27:58;;;;;;;30.10;15.18;;;;;;;7.51;94.91;101333.00;6323753;28;20056;-70
2020/12/17 07:31:00;;;;;;;29.45;14.82;;;;;;;7.65;94.12;101327.34;6323197;28;20055;-71
2020/12/17 07:34:15;;;;;;;27.58;14.70;;;;;;;7.54;94.66;101330.28;6323595;28;20044;-70
2020/12/17 07:37:32;;;;;;;34.58;15.80;;;;;;;7.44;95.22;101328.84;6323200;28;20127;-70
2020/12/17 07:40:35;;;;;;;31.60;15.45;;;;;;;7.32;95.69;101335.34;6322421;28;20055;-69
2020/12/17 07:43:41;;;;;;;27.42;15.55;;;;;;;7.24;96.46;101324.25;6323333;28;20048;-69
2020/12/17 07:46:42;;;;;;;31.45;14.55;;;;;;;7.27;96.96;101334.63;6323033;28;20040;-69
2020/12/17 07:49:43;;;;;;;27.40;15.00;;;;;;;7.33;96.14;101343.13;6322811;28;20055;-69
2020/12/17 07:52:44;;;;;;;28.67;16.05;;;;;;;7.26;96.69;101349.44;6323093;28;20047;-69
2020/12/17 07:55:46;;;;;;;28.27;14.93;;;;;;;7.33;97.22;101345.75;6323053;28;20048;-69
2020/12/17 07:58:48;;;;;;;30.98;16.15;;;;;;;7.28;96.82;101342.41;6322353;28;20059;-69
2020/12/17 08:01:57;;;;;;;29.40;16.73;;;;;;;7.45;96.92;101349.75;6323111;28;20052;-69
2020/12/17 08:04:58;;;;;;;27.55;15.15;;;;;;;7.45;96.19;101341.91;6322296;28;20048;-69
2020/12/17 08:07:59;;;;;;;24.75;14.48;;;;;;;7.49;96.50;101340.88;6321564;28;20044;-69
2020/12/17 08:11:00;;;;;;;32.88;16.83;;;;;;;7.40;96.93;101343.78;6320832;28;20211;-69
2020/12/17 08:14:04;;;;;;;27.45;15.82;;;;;;;7.50;96.73;101347.84;6322440;28;20382;-69
2020/12/17 08:17:06;;;;;;;26.42;14.23;;;;;;;7.43;97.14;101353.31;6322229;28;20051;-69
2020/12/17 08:20:07;;;;;;;23.52;14.00;;;;;;;7.48;96.49;101348.78;6322263;28;20079;-70
2020/12/17 08:23:08;;;;;;;26.85;14.90;;;;;;;7.57;96.44;101354.59;6322229;28;20059;-69
2020/12/17 08:26:11;;;;;;;25.50;14.82;;;;;;;7.57;96.43;101351.13;6322039;28;20048;-69
2020/12/17 08:29:12;;;;;;;24.33;13.05;;;;;;;7.72;95.77;101340.19;6321731;28;20056;-70
2020/12/17 08:32:14;;;;;;;25.88;14.27;;;;;;;7.85;95.28;101333.63;6314995;28;20072;-69
2020/12/17 08:35:19;;;;;;;21.52;12.48;;;;;;;7.96;94.50;101335.91;6310192;28;20044;-70
2020/12/17 08:38:20;;;;;;;23.58;13.52;;;;;;;8.00;93.43;101332.28;6315866;28;20416;-69
2020/12/17 08:41:25;;;;;;;20.90;12.35;;;;;;;8.00;93.51;101344.53;6307956;28;20040;-69
2020/12/17 08:44:29;;;;;;;24.05;11.80;;;;;;;8.21;92.96;101340.31;6308772;28;20462;-69
2020/12/17 08:47:33;;;;;;;19.60;11.48;;;;;;;8.16;93.29;101345.69;6311389;28;20166;-69
2020/12/17 08:50:34;;;;;;;23.27;12.10;;;;;;;8.24;93.26;101348.06;6309642;28;20045;-68
2020/12/17 08:53:40;;;;;;;20.45;12.40;;;;;;;8.20;93.07;101352.56;6312452;28;20044;-69
2020/12/17 08:56:42;;;;;;;20.13;11.18;;;;;;;8.31;92.89;101352.19;6314325;28;20471;-70
2020/12/17 08:59:52;;;;;;;22.95;12.00;;;;;;;8.31;92.10;101362.66;6308909;28;20051;-70
2020/12/17 09:02:59;;;;;;;20.05;11.80;;;;;;;8.28;93.64;101373.25;6308047;28;20047;-70
2020/12/17 09:06:01;;;;;;;23.42;12.27;;;;;;;8.16;94.26;101382.34;6307905;28;20059;-69
2020/12/17 09:09:13;;;;;;;23.60;11.60;;;;;;;8.17;94.39;101391.06;6300545;28;20429;-70
2020/12/17 09:12:14;;;;;;;23.00;12.70;;;;;;;8.03;94.97;101405.44;6296377;28;20090;-69
2020/12/17 09:15:15;;;;;;;21.60;11.82;;;;;;;8.14;95.04;101399.88;6312427;28;20677;-70
2020/12/17 09:18:16;;;;;;;22.55;12.77;;;;;;;8.17;95.92;101394.53;6295998;28;20048;-69
2020/12/17 09:21:17;;;;;;;25.40;13.38;;;;;;;8.03;96.69;101397.59;6295727;28;20056;-69
2020/12/17 09:24:25;;;;;;;23.70;13.82;;;;;;;8.02;98.13;101414.22;6299903;28;20121;-69
2020/12/17 09:27:28;;;;;;;27.13;13.52;;;;;;;8.11;98.57;101419.16;6304943;28;20043;-70
2020/12/17 09:30:31;;;;;;;25.55;14.07;;;;;;;8.02;97.96;101422.06;6305426;28;20052;-70
2020/12/17 09:33:33;;;;;;;23.67;13.18;;;;;;;8.00;98.48;101423.91;6306670;28;20040;-70
2020/12/17 09:36:34;;;;;;;24.63;13.82;;;;;;;8.05;99.45;101428.97;6307718;28;20404;-71
2020/12/17 09:39:42;;;;;;;26.88;14.57;;;;;;;7.92;100.00;101433.75;6308184;28;20044;-70
2020/12/17 09:42:43;;;;;;;24.70;14.48;;;;;;;8.06;99.39;101423.69;6312091;28;20458;-72
2020/12/17 09:45:45;;;;;;;25.25;14.40;;;;;;;8.05;99.54;101435.06;6316937;28;20047;-72
2020/12/17 09:48:47;;;;;;;30.42;14.00;;;;;;;8.10;99.50;101430.53;6319262;28;20053;-73
2020/12/17 09:52:04;;;;;;;28.67;15.02;;;;;;;8.02;99.60;101442.16;6310396;28;20059;-71
2020/12/17 09:55:06;;;;;;;23.60;14.15;;;;;;;7.92;100.00;101430.28;6312528;28;20044;-72
2020/12/17 09:58:09;;;;;;;28.42;15.95;;;;;;;7.89;100.00;101433.81;6313523;28;20119;-73
2020/12/17 10:01:10;;;;;;;29.25;15.35;;;;;;;7.93;100.00;101437.22;6311155;28;20044;-73
2020/12/17 10:04:11;;;;;;;27.67;15.85;;;;;;;7.93;100.00;101440.69;6313452;28;20425;-71
2020/12/17 10:07:12;;;;;;;26.00;15.07;;;;;;;7.92;100.00;101441.59;6310950;28;20044;-72
2020/12/17 10:10:14;;;;;;;30.58;15.70;;;;;;;8.01;100.00;101450.91;6310434;28;20067;-73
2020/12/17 10:13:15;;;;;;;27.83;16.08;;;;;;;8.09;100.00;101447.16;6311188;28;20102;-71
2020/12/17 10:16:16;;;;;;;25.10;14.13;;;;;;;8.06;100.00;101459.47;6313634;28;20127;-73
2020/12/17 10:19:18;;;;;;;26.00;15.70;;;;;;;8.04;100.00;101467.41;6310079;28;20047;-72
2020/12/17 10:22:19;;;;;;;29.83;16.92;;;;;;;8.00;100.00;101463.16;6312882;28;20049;-72
2020/12/17 10:25:21;;;;;;;31.33;17.23;;;;;;;8.02;100.00;101474.41;6308914;28;20112;-74
2020/12/17 10:28:22;;;;;;;28.25;15.88;;;;;;;7.98;100.00;101475.41;6311143;28;20044;-73
2020/12/17 10:31:23;;;;;;;24.88;14.27;;;;;;;8.12;100.00;101470.59;6312054;28;20055;-73
2020/12/17 10:34:25;;;;;;;27.55;14.27;;;;;;;8.13;100.00;101466.25;6321096;28;20044;-73
2020/12/17 10:37:26;;;;;;;24.58;14.43;;;;;;;8.19;100.00;101480.91;6310455;28;20041;-71
2020/12/17 10:40:26;;;;;;;24.17;13.30;;;;;;;8.11;100.00;101481.97;6309588;28;20112;-72
2020/12/17 10:43:27;;;;;;;24.83;13.23;;;;;;;8.17;100.00;101478.31;6313838;28;20076;-70
2020/12/17 10:46:28;;;;;;;25.58;14.45;;;;;;;8.09;100.00;101486.44;6309815;28;20051;-72
2020/12/17 10:49:30;;;;;;;25.42;13.18;;;;;;;8.28;100.00;101486.69;6310749;28;20048;-71
2020/12/17 10:52:31;;;;;;;22.40;13.13;;;;;;;8.17;100.00;101486.16;6312086;28;20511;-72
2020/12/17 10:55:31;;;;;;;23.83;13.18;;;;;;;8.11;100.00;101492.47;6310020;28;20040;-74
2020/12/17 10:58:32;;;;;;;23.88;13.70;;;;;;;8.18;100.00;101508.84;6311457;28;20123;-71
2020/12/17 11:01:33;;;;;;;24.63;13.93;;;;;;;8.23;100.00;101500.84;6311873;28;20040;-72
2020/12/17 11:04:35;;;;;;;20.83;12.45;;;;;;;8.33;100.00;101505.72;6310007;28;20049;-72
2020/12/17 11:07:36;;;;;;;21.50;11.40;;;;;;;8.29;100.00;101504.13;6307252;28;20048;-72
2020/12/17 11:10:36;;;;;;;18.35;10.68;;;;;;;8.29;100.00;101506.72;6307114;28;20040;-72
2020/12/17 11:13:37;;;;;;;14.40;10.23;;;;;;;8.36;100.00;101516.16;6311359;28;20051;-72
2020/12/17 11:16:38;;;;;;;22.38;11.93;;;;;;;8.28;100.00;101514.66;6308743;28;20394;-72
2020/12/17 11:19:40;;;;;;;16.63;10.85;;;;;;;8.32;100.00;101513.66;6309074;28;20059;-72
2020/12/17 11:22:41;;;;;;;14.68;9.93;;;;;;;8.38;100.00;101518.72;6301293;28;20497;-71
2020/12/17 11:25:41;;;;;;;17.50;9.00;;;;;;;8.41;100.00;101516.00;6298637;28;20048;-72
2020/12/17 11:28:42;;;;;;;15.15;9.18;;;;;;;8.43;100.00;101518.56;6297751;28;20048;-70
2020/12/17 11:31:45;;;;;;;12.68;8.80;;;;;;;8.43;100.00;101522.03;6298838;28;20128;-74
2020/12/17 11:34:47;;;;;;;12.68;7.55;;;;;;;8.50;100.00;101520.94;6306343;28;20086;-72
2020/12/17 11:37:50;;;;;;;10.20;6.82;;;;;;;8.48;100.00;101527.13;6323298;28;20047;-71
2020/12/17 11:40:51;;;;;;;11.10;6.68;;;;;;;8.51;98.86;101524.44;6322099;28;20070;-73
2020/12/17 11:43:52;;;;;;;9.43;6.15;;;;;;;8.62;98.91;101530.16;6298282;28;20052;-72
2020/12/17 11:46:53;;;;;;;9.32;6.20;;;;;;;8.59;98.29;101538.13;6297778;28;20135;-70
2020/12/17 11:49:54;;;;;;;11.20;5.18;;;;;;;8.70;97.28;101532.53;6297518;28;20106;-71
2020/12/17 11:52:55;;;;;;;10.40;5.88;;;;;;;8.72;96.94;101539.44;6298098;28;20094;-71
2020/12/17 11:55:58;;;;;;;11.80;5.18;;;;;;;9.15;94.74;101538.84;6297451;28;20044;-72
2020/12/17 11:58:59;;;;;;;8.05;5.90;;;;;;;8.92;95.44;101543.16;6297444;28;20052;-73
2020/12/17 12:02:00;;;;;;;8.40;5.38;;;;;;;9.08;94.76;101546.97;6297071;28;20415;-75
2020/12/17 12:05:11;;;;;;;7.65;4.97;;;;;;;8.88;95.87;101559.00;6302239;28;20051;-74
2020/12/17 12:08:12;;;;;;;8.50;5.22;;;;;;;8.94;95.26;101559.69;6321001;28;20052;-73
2020/12/17 12:11:16;;;;;;;8.13;4.43;;;;;;;9.13;93.55;101561.66;6322341;28;20408;-75
2020/12/17 12:14:17;;;;;;;7.13;4.25;;;;;;;8.94;94.39;101560.53;6322345;28;20048;-73
2020/12/17 12:17:18;;;;;;;6.75;4.47;;;;;;;8.89;95.25;101565.09;6311383;28;20055;-73
2020/12/17 12:20:19;;;;;;;13.52;4.88;;;;;;;9.10;94.44;101558.28;6296785;28;20131;-75
2020/12/17 12:23:20;;;;;;;7.65;4.60;;;;;;;9.07;93.82;101564.47;6297052;28;20049;-73
2020/12/17 12:26:21;;;;;;;6.55;4.10;;;;;;;9.12;92.53;101569.56;6296593;28;20090;-72
2020/12/17 12:29:22;;;;;;;7.13;3.92;;;;;;;9.03;92.43;101559.38;6296124;28;20045;-71
2020/12/17 12:32:23;;;;;;;11.98;4.65;;;;;;;9.18;93.48;101564.13;6297066;28;20059;-77
2020/12/17 12:35:24;;;;;;;7.88;3.90;;;;;;;9.16;92.15;101560.69;6296794;28;20048;-75
2020/12/17 12:38:26;;;;;;;7.57;5.05;;;;;;;9.04;93.36;101553.25;6296632;28;20051;-72
2020/12/17 12:41:27;;;;;;;7.07;3.80;;;;;;;9.19;92.00;101564.97;6296567;28;20048;-76
2020/12/17 12:44:28;;;;;;;6.45;4.00;;;;;;;9.12;92.26;101551.19;6296619;28;20063;-75
2020/12/17 12:47:29;;;;;;;6.75;4.22;;;;;;;9.04;92.65;101556.72;6296259;28;20048;-74
2020/12/17 12:50:31;;;;;;;8.35;3.88;;;;;;;9.03;92.47;101562.00;6295835;28;20048;-73
2020/12/17 12:53:32;;;;;;;6.05;3.90;;;;;;;9.08;91.69;101563.59;6296203;28;20045;-74
2020/12/17 12:56:32;;;;;;;4.88;3.55;;;;;;;9.11;91.97;101557.34;6296202;28;20083;-74
2020/12/17 12:59:33;;;;;;;6.78;3.42;;;;;;;8.92;92.17;101561.53;6295782;28;20048;-73
2020/12/17 13:02:34;;;;;;;7.72;4.00;;;;;;;8.77;92.68;101560.28;6296260;28;20123;-75
2020/12/17 13:05:36;;;;;;;3.90;3.38;;;;;;;8.83;92.98;101560.06;6306152;28;20044;-74
2020/12/17 13:08:37;;;;;;;5.03;3.67;;;;;;;8.76;92.76;101563.78;6320474;28;20044;-73
2020/12/17 13:11:38;;;;;;;4.93;3.17;;;;;;;8.83;92.31;101554.81;6321392;28;20044;-74
2020/12/17 13:14:38;;;;;;;6.18;3.25;;;;;;;8.86;91.37;101552.97;6320321;28;20056;-75
2020/12/17 13:17:39;;;;;;;4.38;3.53;;;;;;;8.82;91.79;101558.34;6319799;28;20040;-77
2020/12/17 13:20:42;;;;;;;7.45;3.42;;;;;;;8.78;91.90;101554.97;6320538;28;20048;-76
2020/12/17 13:23:43;;;;;;;5.15;3.10;;;;;;;8.72;92.73;101556.91;6320949;28;20124;-76
2020/12/17 13:26:44;;;;;;;6.03;3.50;;;;;;;8.79;92.09;101563.69;6320820;28;20101;-74
2020/12/17 13:29:45;;;;;;;5.82;3.58;;;;;;;8.76;92.40;101561.16;6320353;28;20051;-73
2020/12/17 13:32:46;;;;;;;5.25;3.95;;;;;;;8.75;92.00;101562.06;6321269;28;20052;-73
2020/12/17 13:35:47;;;;;;;5.35;4.13;;;;;;;8.73;92.27;101564.75;6319844;28;20508;-72
2020/12/17 13:38:48;;;;;;;5.53;3.55;;;;;;;8.86;90.89;101570.44;6320240;28;20051;-73
2020/12/17 13:41:50;;;;;;;6.32;3.95;;;;;;;8.82;92.03;101581.94;6320024;28;20063;-73
2020/12/17 13:44:51;;;;;;;7.30;3.92;;;;;;;8.85;91.21;101580.03;6321015;28;20055;-72
2020/12/17 13:47:51;;;;;;;5.25;4.10;;;;;;;8.81;92.42;101586.31;6320420;28;20044;-78
2020/12/17 13:50:53;;;;;;;8.88;4.25;;;;;;;8.98;91.91;101588.38;6319885;28;20054;-74
2020/12/17 13:53:54;;;;;;;15.57;4.10;;;;;;;8.95;91.60;101595.47;6318316;28;20113;-73